Weather Station Data

Station Data Captured at Five Minute Intervals Since Midnight Local Time


Date Time Temp. RH % Dew Pt. Wind Speed Wind Dir. Peak Wind Wind Chill Pressure Precip. Solar W/m2 ET
3/30/20 8:35a 48.2 59 34.5 4.0 WSW 13.0 46.8 30.096 0.00 93 0.000
3/30/20 8:30a 48.1 59 34.4 4.0 SSW 9.0 46.7 30.093 0.00 96 0.000
3/30/20 8:25a 47.9 59 34.3 3.0 W 8.0 47.3 30.087 0.00 90 0.000
3/30/20 8:20a 47.8 59 34.2 3.0 W 9.0 47.2 30.085 0.00 75 0.000
3/30/20 8:15a 47.7 59 34.1 3.0 W 9.0 47.1 30.082 0.00 53 0.000
3/30/20 8:10a 47.7 58 33.6 4.0 WSW 9.0 46.2 30.081 0.00 46 0.000
3/30/20 8:05a 47.7 58 33.6 5.0 W 13.0 45.5 30.084 0.00 28 0.000
3/30/20 8:00a 47.7 58 33.6 5.0 WSW 14.0 45.5 30.080 0.00 23 0.002
3/30/20 7:55a 47.7 58 33.6 5.0 W 12.0 45.5 30.080 0.00 15 0.000
3/30/20 7:50a 47.6 58 33.5 6.0 W 12.0 44.8 30.078 0.00 13 0.000
3/30/20 7:45a 47.5 59 33.9 4.0 W 10.0 46.0 30.078 0.00 11 0.000
3/30/20 7:40a 47.6 58 33.5 4.0 W 14.0 46.1 30.076 0.00 9 0.000
3/30/20 7:35a 47.8 58 33.7 6.0 WSW 13.0 45.1 30.073 0.00 6 0.000
3/30/20 7:30a 47.8 58 33.7 5.0 W 16.0 45.7 30.069 0.00 2 0.000
3/30/20 7:25a 47.8 58 33.7 6.0 W 12.0 45.1 30.071 0.00 0 0.000
3/30/20 7:20a 47.8 59 34.2 4.0 W 11.0 46.4 30.067 0.00 0 0.000
3/30/20 7:15a 48.0 59 34.3 5.0 W 9.0 45.9 30.067 0.00 0 0.000
3/30/20 7:10a 48.1 59 34.4 5.0 W 14.0 46.0 30.065 0.00 0 0.000
3/30/20 7:05a 48.1 59 34.4 5.0 W 11.0 46.0 30.066 0.00 0 0.000
3/30/20 7:00a 48.2 60 35.0 5.0 W 13.0 46.1 30.065 0.00 0 0.002
3/30/20 6:55a 48.4 60 35.1 5.0 W 9.0 46.3 30.065 0.00 0 0.000
3/30/20 6:50a 48.6 61 35.7 4.0 W 10.0 47.3 30.063 0.00 0 0.000
3/30/20 6:45a 48.8 60 35.5 6.0 W 13.0 46.3 30.064 0.00 0 0.000
3/30/20 6:40a 48.9 60 35.6 5.0 W 13.0 46.9 30.063 0.00 0 0.000
3/30/20 6:35a 49.1 60 35.8 5.0 W 9.0 47.1 30.062 0.00 0 0.000
3/30/20 6:30a 49.3 60 36.0 5.0 W 12.0 47.4 30.058 0.00 0 0.000
3/30/20 6:25a 49.5 60 36.2 5.0 W 10.0 47.6 30.058 0.00 0 0.000
3/30/20 6:20a 49.5 60 36.2 5.0 W 9.0 47.6 30.058 0.00 0 0.000
3/30/20 6:15a 49.6 60 36.3 4.0 WNW 9.0 48.4 30.056 0.00 0 0.000
3/30/20 6:10a 49.8 59 36.0 4.0 W 9.0 48.7 30.057 0.00 0 0.000
3/30/20 6:05a 50.1 59 36.3 5.0 W 9.0 48.3 30.054 0.00 0 0.000
3/30/20 6:00a 50.4 58 36.2 5.0 W 12.0 48.7 30.053 0.00 0 0.002
3/30/20 5:55a 50.6 58 36.4 7.0 W 14.0 47.9 30.052 0.00 0 0.000
3/30/20 5:50a 50.8 57 36.1 8.0 W 12.0 47.5 30.049 0.00 0 0.000
3/30/20 5:45a 50.9 57 36.2 8.0 W 17.0 47.6 30.047 0.00 0 0.000
3/30/20 5:40a 50.8 56 35.7 7.0 W 16.0 48.2 30.046 0.00 0 0.000
3/30/20 5:35a 50.8 56 35.7 8.0 WSW 16.0 47.5 30.046 0.00 0 0.000
3/30/20 5:30a 50.7 56 35.6 5.0 W 13.0 49.0 30.043 0.00 0 0.000
3/30/20 5:25a 50.9 55 35.3 5.0 W 12.0 49.3 30.042 0.00 0 0.000
3/30/20 5:20a 51.0 55 35.4 6.0 W 12.0 48.9 30.039 0.00 0 0.000
3/30/20 5:15a 51.0 55 35.4 5.0 W 11.0 49.4 30.037 0.00 0 0.000
3/30/20 5:10a 51.0 55 35.4 5.0 W 12.0 49.4 30.035 0.00 0 0.000
3/30/20 5:05a 50.9 55 35.3 3.0 WSW 9.0 50.7 30.033 0.00 0 0.000
3/30/20 5:00a 51.1 54 35.0 3.0 WSW 8.0 50.9 30.032 0.00 0 0.002
3/30/20 4:55a 51.2 54 35.1 4.0 W 10.0 50.2 30.028 0.00 0 0.000
3/30/20 4:50a 51.2 54 35.1 5.0 WSW 12.0 49.6 30.026 0.00 0 0.000
3/30/20 4:45a 51.0 54 34.9 3.0 SW 8.0 50.8 30.025 0.00 0 0.000
3/30/20 4:40a 51.2 54 35.1 3.0 W 10.0 51.0 30.024 0.00 0 0.000
3/30/20 4:35a 51.2 55 35.6 3.0 W 10.0 51.0 30.022 0.00 0 0.000
3/30/20 4:30a 51.0 55 35.4 3.0 SW 10.0 50.8 30.021 0.00 0 0.000
3/30/20 4:25a 50.9 56 35.7 2.0 WSW 6.0 50.9 30.022 0.00 0 0.000
3/30/20 4:20a 51.2 56 36.0 2.0 SW 3.0 51.2 30.020 0.00 0 0.000
3/30/20 4:15a 51.3 56 36.1 3.0 SW 6.0 51.1 30.019 0.00 0 0.000
3/30/20 4:10a 51.4 56 36.2 2.0 WSW 4.0 51.4 30.020 0.00 0 0.000
3/30/20 4:05a 51.5 56 36.3 2.0 WSW 6.0 51.5 30.020 0.00 0 0.000
3/30/20 4:00a 51.6 56 36.4 2.0 SW 6.0 51.6 30.018 0.00 0 0.002
3/30/20 3:55a 51.7 57 36.9 2.0 WSW 6.0 51.7 30.016 0.00 0 0.000
3/30/20 3:50a 52.0 57 37.2 2.0 SSW 7.0 52.0 30.014 0.00 0 0.000
3/30/20 3:45a 52.0 57 37.2 3.0 W 7.0 51.9 30.012 0.00 0 0.000
3/30/20 3:40a 52.1 57 37.3 3.0 W 10.0 52.0 30.009 0.00 0 0.000
3/30/20 3:35a 52.2 58 37.9 2.0 W 6.0 52.2 30.011 0.00 0 0.000
3/30/20 3:30a 52.3 58 38.0 2.0 WSW 6.0 52.3 30.008 0.00 0 0.000
3/30/20 3:25a 52.5 58 38.1 2.0 SSW 6.0 52.5 30.008 0.00 0 0.000
3/30/20 3:20a 52.6 57 37.8 2.0 WSW 8.0 52.6 30.006 0.00 0 0.000
3/30/20 3:15a 52.8 58 38.4 3.0 WSW 9.0 52.8 30.004 0.00 0 0.000
3/30/20 3:10a 53.0 57 38.2 2.0 WSW 9.0 53.0 30.002 0.00 0 0.000
3/30/20 3:05a 53.2 57 38.4 3.0 SW 7.0 53.2 30.002 0.00 0 0.000
3/30/20 3:00a 53.4 57 38.5 3.0 SW 9.0 53.4 30.002 0.00 0 0.002
3/30/20 2:55a 53.5 57 38.6 3.0 WSW 8.0 53.5 30.002 0.00 0 0.000
3/30/20 2:50a 53.6 57 38.7 3.0 SW 8.0 53.6 30.000 0.00 0 0.000
3/30/20 2:45a 53.8 58 39.4 4.0 SSW 7.0 53.3 29.999 0.00 0 0.000
3/30/20 2:40a 53.7 58 39.3 3.0 SW 11.0 53.7 29.998 0.00 0 0.000
3/30/20 2:35a 53.8 59 39.8 3.0 SSW 7.0 53.8 29.998 0.00 0 0.000
3/30/20 2:30a 53.9 59 39.9 3.0 SSW 8.0 53.9 29.999 0.00 0 0.000
3/30/20 2:25a 54.0 59 40.0 3.0 SW 11.0 54.0 30.000 0.00 0 0.000
3/30/20 2:20a 54.1 59 40.1 4.0 SW 12.0 53.6 29.999 0.00 0 0.000
3/30/20 2:15a 54.2 60 40.6 3.0 WSW 7.0 54.2 30.002 0.00 0 0.000
3/30/20 2:10a 54.3 60 40.7 4.0 SSW 10.0 53.8 30.004 0.00 0 0.000
3/30/20 2:05a 54.3 60 40.7 3.0 SSW 10.0 54.3 30.004 0.00 0 0.000
3/30/20 2:00a 54.4 61 41.2 3.0 SSW 8.0 54.4 30.005 0.00 0 0.002
3/30/20 1:55a 54.5 61 41.3 4.0 SSW 11.0 54.1 30.006 0.00 0 0.000
3/30/20 1:50a 54.5 61 41.3 3.0 SSW 9.0 54.5 30.006 0.00 0 0.000
3/30/20 1:45a 54.6 61 41.4 4.0 SW 8.0 54.2 30.006 0.00 0 0.000
3/30/20 1:40a 54.7 61 41.5 4.0 SW 8.0 54.3 30.004 0.00 0 0.000
3/30/20 1:35a 54.6 61 41.4 3.0 SW 7.0 54.6 30.007 0.00 0 0.000
3/30/20 1:30a 54.7 61 41.5 3.0 SSW 8.0 54.7 30.008 0.00 0 0.000
3/30/20 1:25a 54.9 61 41.7 3.0 SSW 6.0 54.9 30.007 0.00 0 0.000
3/30/20 1:20a 55.1 61 41.9 3.0 SSW 8.0 55.1 30.009 0.00 0 0.000
3/30/20 1:15a 55.1 61 41.9 4.0 SSW 9.0 54.7 30.011 0.00 0 0.000
3/30/20 1:10a 55.2 62 42.4 4.0 SW 9.0 54.8 30.011 0.00 0 0.000
3/30/20 1:05a 55.3 62 42.5 5.0 SW 10.0 54.5 30.013 0.00 0 0.000
3/30/20 1:00a 55.2 63 42.8 4.0 SSW 8.0 54.8 30.012 0.00 0 0.002
3/30/20 12:55a 55.3 63 42.9 5.0 SSW 10.0 54.5 30.013 0.00 0 0.000
3/30/20 12:50a 55.2 63 42.8 3.0 SW 8.0 55.2 30.013 0.00 0 0.000
3/30/20 12:45a 55.2 64 43.2 4.0 SSW 9.0 54.8 30.013 0.00 0 0.000
3/30/20 12:40a 55.3 63 42.9 3.0 SW 6.0 55.3 30.012 0.00 0 0.000
3/30/20 12:35a 55.4 63 43.0 4.0 SSW 10.0 55.1 30.012 0.00 0 0.000
3/30/20 12:30a 55.4 63 43.0 4.0 SSW 9.0 55.1 30.012 0.00 0 0.000
3/30/20 12:25a 55.5 63 43.1 3.0 SSW 8.0 55.5 30.011 0.00 0 0.000
3/30/20 12:20a 55.6 63 43.2 3.0 SW 6.0 55.6 30.013 0.00 0 0.000
3/30/20 12:15a 55.9 63 43.5 4.0 SSW 10.0 55.7 30.012 0.00 0 0.000
3/30/20 12:10a 55.9 62 43.1 4.0 SSW 8.0 55.7 30.007 0.00 0 0.000
3/30/20 12:05a 56.0 62 43.2 4.0 SSW 9.0 55.8 30.008 0.00 0 0.000
3/30/20 12:00a 55.9 62 43.1 4.0 SSW 8.0 55.7 30.009 0.00 0 0.002

13,379 Page Views